createdAt,value
2022-08-21T00:01:54.890Z,14.73
2022-08-21T00:04:22.827Z,14.13
2022-08-21T00:06:57.595Z,12.68
2022-08-21T00:09:24.713Z,14.52
2022-08-21T00:11:52.030Z,13.80
2022-08-21T00:14:19.193Z,12.85
2022-08-21T00:16:46.430Z,15.70
2022-08-21T00:19:14.053Z,13.43
2022-08-21T00:21:41.263Z,14.40
2022-08-21T00:24:13.440Z,15.15
2022-08-21T00:26:40.732Z,13.50
2022-08-21T00:29:07.977Z,15.13
2022-08-21T00:31:35.148Z,16.58
2022-08-21T00:34:03.441Z,12.68
2022-08-21T00:36:31.267Z,16.02
2022-08-21T00:41:37.102Z,14.90
2022-08-21T00:44:13.965Z,14.57
2022-08-21T00:46:43.179Z,14.70
2022-08-21T00:49:14.142Z,17.95
2022-08-21T00:52:00.322Z,14.38
2022-08-21T00:54:33.208Z,17.83
2022-08-21T00:57:13.942Z,13.30
2022-08-21T00:59:48.741Z,13.73
2022-08-21T01:02:21.493Z,13.88
2022-08-21T01:04:49.894Z,15.25
2022-08-21T01:07:18.353Z,13.57
2022-08-21T01:09:49.568Z,15.43
2022-08-21T01:12:17.941Z,14.70
2022-08-21T01:14:46.477Z,15.60
2022-08-21T01:17:18.207Z,14.73
2022-08-21T01:19:45.370Z,12.55
2022-08-21T01:22:12.746Z,16.45
2022-08-21T01:24:40.470Z,13.32
2022-08-21T01:27:08.116Z,16.83
2022-08-21T01:30:00.443Z,13.73
2022-08-21T01:32:28.078Z,16.05
2022-08-21T01:34:55.264Z,14.50
2022-08-21T01:37:23.565Z,16.80
2022-08-21T01:39:50.942Z,18.33
2022-08-21T01:42:18.990Z,14.55
2022-08-21T01:44:46.165Z,15.52
2022-08-21T01:47:17.708Z,17.80
2022-08-21T01:49:46.560Z,19.23
2022-08-21T01:52:14.022Z,16.75
2022-08-21T01:54:43.621Z,17.48
2022-08-21T01:57:14.173Z,19.52
2022-08-21T01:59:41.710Z,17.63
2022-08-21T02:02:09.721Z,19.48
2022-08-21T02:04:36.867Z,17.23
2022-08-21T02:07:05.046Z,18.85
2022-08-21T02:09:35.863Z,20.13
2022-08-21T02:12:10.685Z,19.80
2022-08-21T02:14:39.367Z,20.20
2022-08-21T02:17:09.501Z,22.27
2022-08-21T02:19:40.132Z,20.48
2022-08-21T02:22:11.894Z,18.98
2022-08-21T02:24:54.145Z,21.58
2022-08-21T02:27:26.262Z,19.48
2022-08-21T02:29:58.913Z,16.63
2022-08-21T02:32:27.244Z,16.30
2022-08-21T02:34:54.981Z,20.88
2022-08-21T02:37:22.243Z,25.08
2022-08-21T02:39:49.587Z,14.90
2022-08-21T02:42:17.838Z,16.05
2022-08-21T02:44:44.973Z,15.13
2022-08-21T02:47:12.111Z,13.52
2022-08-21T02:49:39.254Z,14.80
2022-08-21T02:52:06.933Z,14.93
2022-08-21T02:54:34.171Z,16.83
2022-08-21T02:57:01.335Z,15.43
2022-08-21T02:59:28.507Z,10.90
2022-08-21T03:01:56.517Z,16.85
2022-08-21T03:04:23.939Z,13.20
2022-08-21T03:06:51.100Z,16.13
2022-08-21T03:09:18.441Z,11.88
2022-08-21T03:11:45.574Z,14.30
2022-08-21T03:14:12.687Z,12.75
2022-08-21T03:16:39.835Z,11.90
2022-08-21T03:19:06.970Z,11.93
2022-08-21T03:21:34.628Z,12.98
2022-08-21T03:24:04.178Z,10.80
2022-08-21T03:26:32.115Z,14.77
2022-08-21T03:31:31.829Z,11.23
2022-08-21T03:34:00.004Z,14.18
2022-08-21T03:36:27.202Z,11.68
2022-08-21T03:38:54.999Z,11.40
2022-08-21T03:41:22.396Z,16.17
2022-08-21T03:43:49.586Z,14.02
2022-08-21T03:46:16.832Z,13.07
2022-08-21T03:48:44.052Z,12.73
2022-08-21T03:51:11.260Z,10.07
2022-08-21T03:53:38.761Z,13.25
2022-08-21T03:56:07.572Z,14.13
2022-08-21T03:58:35.074Z,15.35
2022-08-21T04:01:07.116Z,12.27
2022-08-21T04:03:38.834Z,9.35
2022-08-21T04:06:07.342Z,12.27
2022-08-21T04:08:35.939Z,9.68
2022-08-21T04:11:03.719Z,14.68
2022-08-21T04:13:31.147Z,12.10
2022-08-21T04:15:59.652Z,12.45
2022-08-21T04:18:26.924Z,9.98
2022-08-21T04:20:59.443Z,12.43
2022-08-21T04:23:27.714Z,14.50
2022-08-21T04:25:58.649Z,14.57
2022-08-21T04:28:30.463Z,10.80
2022-08-21T04:30:59.141Z,8.05
2022-08-21T04:33:27.025Z,9.25
2022-08-21T04:38:22.279Z,9.95
2022-08-21T04:43:19.361Z,9.23
2022-08-21T04:45:50.813Z,10.57
2022-08-21T04:48:25.169Z,13.25
2022-08-21T04:51:31.082Z,10.48
2022-08-21T04:54:13.120Z,12.50
2022-08-21T04:56:56.355Z,8.68
2022-08-21T04:59:42.039Z,9.02
2022-08-21T05:02:11.783Z,11.30
2022-08-21T05:04:52.824Z,9.50
2022-08-21T05:07:42.518Z,8.68
2022-08-21T05:10:12.581Z,11.35
2022-08-21T05:12:44.560Z,10.43
2022-08-21T05:15:13.895Z,12.98
2022-08-21T05:17:42.824Z,14.10
2022-08-21T05:20:15.736Z,11.82
2022-08-21T05:22:43.656Z,8.95
2022-08-21T05:30:12.063Z,11.90
2022-08-21T05:32:39.500Z,7.82
2022-08-21T05:35:10.078Z,10.18
2022-08-21T05:37:37.253Z,10.38
2022-08-21T05:40:21.503Z,11.60
2022-08-21T05:42:56.709Z,12.20
2022-08-21T05:45:43.316Z,9.52
2022-08-21T05:48:38.260Z,10.68
2022-08-21T05:51:12.868Z,11.90
2022-08-21T05:53:43.209Z,7.55
2022-08-21T05:56:12.934Z,12.15
2022-08-21T05:58:40.643Z,8.82
2022-08-21T06:01:10.039Z,18.45
2022-08-21T06:03:42.619Z,8.95
2022-08-21T06:06:10.890Z,10.18
2022-08-21T06:08:38.718Z,10.68
2022-08-21T06:11:08.002Z,7.82
2022-08-21T06:13:36.569Z,9.80
2022-08-21T06:16:13.652Z,10.85
2022-08-21T06:18:46.646Z,7.78
2022-08-21T06:21:14.934Z,12.18
2022-08-21T06:23:44.761Z,8.63
2022-08-21T06:26:15.286Z,10.57
2022-08-21T06:28:44.179Z,8.38
2022-08-21T06:31:21.846Z,9.25
2022-08-21T06:33:49.560Z,10.13
2022-08-21T06:36:18.122Z,17.17
2022-08-21T06:38:50.928Z,17.92
2022-08-21T06:41:24.224Z,8.38
2022-08-21T06:43:56.254Z,7.97
2022-08-21T06:46:27.361Z,10.43
2022-08-21T06:48:54.729Z,6.15
2022-08-21T06:51:24.407Z,7.55
2022-08-21T06:53:51.809Z,9.40
2022-08-21T06:56:20.420Z,12.30
2022-08-21T06:58:48.358Z,8.93
2022-08-21T07:03:45.007Z,6.88
2022-08-21T07:06:12.839Z,7.13
2022-08-21T07:08:40.604Z,7.30
2022-08-21T07:11:19.869Z,5.95
2022-08-21T07:13:47.498Z,8.23
2022-08-21T07:27:13.195Z,7.43
2022-08-21T07:29:40.452Z,11.27
2022-08-21T07:32:07.701Z,7.55
2022-08-21T07:34:34.670Z,7.20
2022-08-21T07:37:06.402Z,11.57
2022-08-21T07:39:37.728Z,6.18
2022-08-21T07:42:08.357Z,7.75
2022-08-21T07:44:35.681Z,8.27
2022-08-21T07:47:02.475Z,9.68
2022-08-21T07:49:29.295Z,6.47
2022-08-21T07:51:56.122Z,7.32
2022-08-21T07:54:33.279Z,12.63
2022-08-21T07:57:00.777Z,7.35
2022-08-21T07:59:27.530Z,7.75
2022-08-21T08:01:54.308Z,5.20
2022-08-21T08:04:25.789Z,3.58
2022-08-21T08:06:53.375Z,7.55
2022-08-21T08:09:20.829Z,7.27
2022-08-21T08:11:47.725Z,4.28
2022-08-21T08:14:14.776Z,4.37
2022-08-21T08:16:41.592Z,5.82
2022-08-21T08:19:08.439Z,7.53
2022-08-21T08:21:36.727Z,8.88
2022-08-21T08:24:18.344Z,6.07
2022-08-21T08:26:47.001Z,6.78
2022-08-21T08:29:22.417Z,5.70
2022-08-21T08:31:49.218Z,6.78
2022-08-21T08:34:25.021Z,4.35
2022-08-21T08:36:52.770Z,7.90
2022-08-21T08:39:26.490Z,6.72
2022-08-21T08:42:33.995Z,6.97
2022-08-21T08:45:11.795Z,5.20
2022-08-21T08:47:47.744Z,6.78
2022-08-21T08:50:50.354Z,6.68
2022-08-21T08:53:26.650Z,7.03
2022-08-21T08:55:54.067Z,5.78
2022-08-21T08:58:33.101Z,8.20
2022-08-21T09:01:01.138Z,7.25
2022-08-21T09:03:29.578Z,10.15
2022-08-21T09:06:05.466Z,6.70
2022-08-21T09:09:03.091Z,7.05
2022-08-21T09:12:05.511Z,6.88
2022-08-21T09:15:07.566Z,9.43
2022-08-21T09:18:30.375Z,5.75
2022-08-21T09:21:27.507Z,5.85
2022-08-21T09:24:18.823Z,6.78
2022-08-21T09:26:58.418Z,6.13
2022-08-21T09:29:30.779Z,8.38
2022-08-21T09:31:57.495Z,8.85
2022-08-21T09:34:33.354Z,6.25
2022-08-21T09:37:00.614Z,6.35
2022-08-21T09:39:43.533Z,5.90
2022-08-21T09:42:29.662Z,6.80
2022-08-21T09:45:24.202Z,5.57
2022-08-21T09:47:51.037Z,5.68
2022-08-21T09:50:24.357Z,5.30
2022-08-21T09:52:59.772Z,6.18
2022-08-21T09:56:06.628Z,6.88
2022-08-21T09:58:38.361Z,7.93
2022-08-21T10:01:08.256Z,10.35
2022-08-21T10:03:35.261Z,5.70
2022-08-21T10:06:09.652Z,4.75
2022-08-21T10:08:40.289Z,4.68
2022-08-21T10:11:25.060Z,5.10
2022-08-21T10:14:13.640Z,5.70
2022-08-21T10:16:40.246Z,5.63
2022-08-21T10:19:51.096Z,4.85
2022-08-21T10:22:53.229Z,3.17
2022-08-21T10:25:50.466Z,4.28
2022-08-21T10:28:42.521Z,8.00
2022-08-21T10:31:33.339Z,3.15
2022-08-21T10:34:31.630Z,3.42
2022-08-21T10:37:58.396Z,4.90
2022-08-21T10:41:11.716Z,9.55
2022-08-21T10:44:06.775Z,4.43
2022-08-21T10:46:51.235Z,2.85
2022-08-21T10:49:41.221Z,6.20
2022-08-21T10:53:01.973Z,2.85
2022-08-21T10:55:48.935Z,3.92
2022-08-21T10:58:40.646Z,3.75
2022-08-21T11:01:21.774Z,2.58
2022-08-21T11:04:16.579Z,2.42
2022-08-21T11:06:53.356Z,3.05
2022-08-21T11:09:26.716Z,1.83
2022-08-21T11:12:10.668Z,2.90
2022-08-21T11:15:03.704Z,3.00
2022-08-21T11:18:28.463Z,1.85
2022-08-21T11:21:25.089Z,2.40
2022-08-21T11:24:14.362Z,2.80
2022-08-21T11:26:54.436Z,3.22
2022-08-21T11:29:29.800Z,3.28
2022-08-21T11:32:44.418Z,2.22
2022-08-21T11:35:35.226Z,2.28
2022-08-21T11:38:29.050Z,2.40
2022-08-21T11:41:30.925Z,2.90
2022-08-21T11:44:35.507Z,4.13
2022-08-21T11:47:27.259Z,1.73
2022-08-21T11:50:34.885Z,3.75
2022-08-21T11:53:29.831Z,3.15
2022-08-21T11:56:36.578Z,4.10
2022-08-21T11:59:12.168Z,3.33
2022-08-21T12:01:45.883Z,2.83
2022-08-21T12:04:42.950Z,2.95
2022-08-21T12:07:38.565Z,3.35
2022-08-21T12:10:12.976Z,4.50
2022-08-21T12:12:43.298Z,4.20
2022-08-21T12:15:22.114Z,3.38
2022-08-21T12:18:32.238Z,2.13
2022-08-21T12:21:21.329Z,4.00
2022-08-21T12:24:18.774Z,1.55
2022-08-21T12:26:57.543Z,1.90
2022-08-21T12:29:32.684Z,3.03
2022-08-21T12:32:10.885Z,3.47
2022-08-21T12:35:25.008Z,4.10
2022-08-21T12:38:18.290Z,4.38
2022-08-21T12:41:04.439Z,3.88
2022-08-21T12:43:46.404Z,3.97
2022-08-21T12:46:27.210Z,2.22
2022-08-21T12:49:04.354Z,2.72
2022-08-21T12:51:52.059Z,3.50
2022-08-21T12:57:07.759Z,2.95
2022-08-21T12:59:40.693Z,4.18
2022-08-21T13:02:19.781Z,4.63
2022-08-21T13:04:50.157Z,3.45
2022-08-21T13:07:27.787Z,2.75
2022-08-21T13:10:04.136Z,3.20
2022-08-21T13:12:32.676Z,4.18
2022-08-21T13:15:08.757Z,4.40
2022-08-21T13:17:45.643Z,3.25
2022-08-21T13:20:28.445Z,4.65
2022-08-21T13:22:55.527Z,2.42
2022-08-21T13:25:30.688Z,3.55
2022-08-21T13:28:14.358Z,2.53
2022-08-21T13:30:47.558Z,3.63
2022-08-21T13:33:19.787Z,3.22
2022-08-21T13:36:06.791Z,7.57
2022-08-21T13:38:37.847Z,2.92
2022-08-21T13:41:16.955Z,3.60
2022-08-21T13:43:56.967Z,4.68
2022-08-21T13:46:32.417Z,3.58
2022-08-21T13:49:02.863Z,5.28
2022-08-21T13:51:32.503Z,5.60
2022-08-21T13:53:59.866Z,5.40
2022-08-21T13:56:41.791Z,5.68
2022-08-21T13:59:08.989Z,5.43
2022-08-21T14:01:58.240Z,4.45
2022-08-21T14:04:35.767Z,4.72
2022-08-21T14:07:14.893Z,7.60
2022-08-21T14:09:44.643Z,4.95
2022-08-21T14:12:23.276Z,5.82
2022-08-21T14:14:51.727Z,3.90
2022-08-21T14:17:42.542Z,5.65
2022-08-21T14:20:26.358Z,5.30
2022-08-21T14:22:53.261Z,6.07
2022-08-21T14:25:20.055Z,5.70
2022-08-21T14:28:09.909Z,9.33
2022-08-21T14:30:44.076Z,5.97
2022-08-21T14:33:17.000Z,5.45
2022-08-21T14:35:43.887Z,6.05
2022-08-21T14:41:30.667Z,6.95
2022-08-21T14:44:08.248Z,7.32
2022-08-21T14:46:55.325Z,3.78
2022-08-21T14:49:29.836Z,3.70
2022-08-21T14:51:59.467Z,7.05
2022-08-21T14:54:32.875Z,5.57
2022-08-21T14:57:10.304Z,5.72
2022-08-21T14:59:39.761Z,5.00
2022-08-21T15:02:10.811Z,7.03
2022-08-21T15:04:37.959Z,7.10
2022-08-21T15:07:05.916Z,10.07
2022-08-21T15:09:32.984Z,8.32
2022-08-21T15:12:05.698Z,6.38
2022-08-21T15:14:41.156Z,6.32
2022-08-21T15:17:13.279Z,4.30
2022-08-21T15:19:40.787Z,7.43
2022-08-21T15:22:15.500Z,4.70
2022-08-21T15:27:18.129Z,8.00
2022-08-21T15:29:45.418Z,6.65
2022-08-21T15:32:23.974Z,3.53
2022-08-21T15:34:54.801Z,5.30
2022-08-21T15:37:24.376Z,4.50
2022-08-21T15:39:54.149Z,5.78
2022-08-21T15:42:24.448Z,4.35
2022-08-21T15:44:55.070Z,9.00
2022-08-21T15:47:35.371Z,5.30
2022-08-21T15:50:05.770Z,6.97
2022-08-21T15:52:32.819Z,6.70
2022-08-21T15:55:00.302Z,6.03
2022-08-21T15:57:29.149Z,4.47
2022-08-21T16:00:12.994Z,7.32
2022-08-21T16:02:47.894Z,6.78
2022-08-21T16:05:20.115Z,7.15
2022-08-21T16:07:50.984Z,4.53
2022-08-21T16:10:29.837Z,5.10
2022-08-21T16:13:07.237Z,7.72
2022-08-21T16:15:34.892Z,4.97
2022-08-21T16:20:31.261Z,3.35
2022-08-21T16:22:59.728Z,8.48
2022-08-21T16:25:27.842Z,5.13
2022-08-21T16:28:02.568Z,8.10
2022-08-21T16:30:31.841Z,7.32
2022-08-21T16:33:04.439Z,7.78
2022-08-21T16:35:32.350Z,8.15
2022-08-21T16:37:59.704Z,5.57
2022-08-21T16:40:28.555Z,4.60
2022-08-21T16:42:56.343Z,4.65
2022-08-21T16:47:51.419Z,6.47
2022-08-21T16:50:25.565Z,4.80
2022-08-21T16:52:53.231Z,7.90
2022-08-21T16:57:47.480Z,7.93
2022-08-21T17:00:15.846Z,5.65
2022-08-21T17:02:51.339Z,7.30
2022-08-21T17:05:18.378Z,9.07
2022-08-21T17:07:47.126Z,10.05
2022-08-21T17:10:19.236Z,7.72
2022-08-21T17:12:58.448Z,4.50
2022-08-21T17:15:36.637Z,6.30
2022-08-21T17:18:10.425Z,5.88
2022-08-21T17:20:38.539Z,7.38
2022-08-21T17:23:05.564Z,5.25
2022-08-21T17:25:34.630Z,5.22
2022-08-21T17:28:04.560Z,10.55
2022-08-21T17:30:32.031Z,6.68
2022-08-21T17:33:01.562Z,5.90
2022-08-21T17:35:29.213Z,9.60
2022-08-21T17:37:56.958Z,7.70
2022-08-21T17:42:52.663Z,5.03
2022-08-21T17:45:21.387Z,7.53
2022-08-21T17:47:48.512Z,5.15
2022-08-21T17:50:22.838Z,9.55
2022-08-21T17:52:50.410Z,9.35
2022-08-21T17:55:20.437Z,7.80
2022-08-21T17:57:52.325Z,7.97
2022-08-21T18:00:22.070Z,13.13
2022-08-21T18:03:03.852Z,9.70
2022-08-21T18:05:31.238Z,10.27
2022-08-21T18:07:58.799Z,7.00
2022-08-21T18:10:26.274Z,9.00
2022-08-21T18:12:54.347Z,10.35
2022-08-21T18:15:22.585Z,10.55
2022-08-21T18:17:52.553Z,7.30
2022-08-21T18:20:23.905Z,7.97
2022-08-21T18:22:51.668Z,14.52
2022-08-21T18:27:49.072Z,6.85
2022-08-21T18:30:24.303Z,10.85
2022-08-21T18:32:55.677Z,7.97
2022-08-21T18:35:23.871Z,7.93
2022-08-21T18:37:50.893Z,8.70
2022-08-21T18:40:18.462Z,10.60
2022-08-21T18:42:58.360Z,13.00
2022-08-21T18:45:26.334Z,10.32
2022-08-21T18:47:58.747Z,11.50
2022-08-21T18:50:29.234Z,7.20
2022-08-21T18:52:57.143Z,8.18
2022-08-21T18:55:25.734Z,7.63
2022-08-21T18:57:57.691Z,11.38
2022-08-21T19:00:44.367Z,10.80
2022-08-21T19:03:23.569Z,9.63
2022-08-21T19:05:54.756Z,10.77
2022-08-21T19:08:28.754Z,7.40
2022-08-21T19:11:02.565Z,8.73
2022-08-21T19:13:30.905Z,12.20
2022-08-21T19:16:03.941Z,8.10
2022-08-21T19:18:39.154Z,10.07
2022-08-21T19:21:07.813Z,12.35
2022-08-21T19:23:35.560Z,11.45
2022-08-21T19:28:50.602Z,10.23
2022-08-21T19:31:29.558Z,8.80
2022-08-21T19:34:31.201Z,13.02
2022-08-21T19:37:00.517Z,11.35
2022-08-21T19:39:27.619Z,9.43
2022-08-21T19:41:59.796Z,9.13
2022-08-21T19:44:31.092Z,7.40
2022-08-21T19:47:00.451Z,12.73
2022-08-21T19:49:35.443Z,10.82
2022-08-21T19:52:13.193Z,10.18
2022-08-21T19:57:12.774Z,13.73
2022-08-21T19:59:42.753Z,10.10
2022-08-21T20:02:18.590Z,11.55
2022-08-21T20:04:53.626Z,10.65
2022-08-21T20:07:26.752Z,10.93
2022-08-21T20:09:56.567Z,12.07
2022-08-21T20:12:25.305Z,14.63
2022-08-21T20:14:54.795Z,13.27
2022-08-21T20:17:22.919Z,9.30
2022-08-21T20:19:55.144Z,7.57
2022-08-21T20:22:24.107Z,13.48
2022-08-21T20:24:51.982Z,11.82
2022-08-21T20:27:27.780Z,8.25
2022-08-21T20:29:55.995Z,9.02
2022-08-21T20:32:23.473Z,8.27
2022-08-21T20:34:53.768Z,11.40
2022-08-21T20:37:36.645Z,9.02
2022-08-21T20:40:12.287Z,7.63
2022-08-21T20:42:48.766Z,7.70
2022-08-21T20:45:35.504Z,7.60
2022-08-21T20:48:32.828Z,8.93
2022-08-21T20:51:52.124Z,8.50
2022-08-21T20:54:40.470Z,8.40
2022-08-21T20:57:32.050Z,7.97
2022-08-21T21:00:16.808Z,9.27
2022-08-21T21:02:58.817Z,10.52
2022-08-21T21:05:59.852Z,6.57
2022-08-21T21:08:40.286Z,8.30
2022-08-21T21:11:24.205Z,8.93
2022-08-21T21:13:56.810Z,10.15
2022-08-21T21:16:40.576Z,7.68
2022-08-21T21:19:38.043Z,11.32
2022-08-21T21:22:20.470Z,7.63
2022-08-21T21:25:39.814Z,8.13
2022-08-21T21:28:21.827Z,9.65
2022-08-21T21:30:51.950Z,12.18
2022-08-21T21:33:25.118Z,8.88
2022-08-21T21:36:22.280Z,9.55
2022-08-21T21:39:10.539Z,9.60
2022-08-21T21:42:01.948Z,8.27
2022-08-21T21:45:10.033Z,9.60
2022-08-21T21:48:16.653Z,9.10
2022-08-21T21:51:12.068Z,7.63
2022-08-21T21:54:05.017Z,11.23
2022-08-21T21:57:06.318Z,11.50
2022-08-21T22:00:33.393Z,9.32
2022-08-21T22:03:33.547Z,11.48
2022-08-21T22:06:17.554Z,9.77
2022-08-21T22:09:24.705Z,9.80
2022-08-21T22:12:18.734Z,12.20
2022-08-21T22:14:47.536Z,10.20
2022-08-21T22:17:48.884Z,13.13
2022-08-21T22:20:34.053Z,11.55
2022-08-21T22:23:12.731Z,10.75
2022-08-21T22:25:52.065Z,12.80
2022-08-21T22:28:26.972Z,13.02
2022-08-21T22:31:23.516Z,8.15
2022-08-21T22:34:19.241Z,11.90
2022-08-21T22:37:03.048Z,13.77
2022-08-21T22:39:54.853Z,10.43
2022-08-21T22:42:27.621Z,13.20
2022-08-21T22:45:04.716Z,10.82
2022-08-21T22:47:47.412Z,9.95
2022-08-21T22:50:27.014Z,11.25
2022-08-21T22:53:07.755Z,9.10
2022-08-21T22:55:53.452Z,10.65
2022-08-21T22:58:53.751Z,12.38
2022-08-21T23:01:21.171Z,12.80
2022-08-21T23:03:57.747Z,13.75
2022-08-21T23:07:02.046Z,11.13
2022-08-21T23:09:53.205Z,12.63
2022-08-21T23:12:36.165Z,13.95
2022-08-21T23:15:18.182Z,10.68
2022-08-21T23:18:25.532Z,11.50
2022-08-21T23:21:54.897Z,9.48
2022-08-21T23:24:57.103Z,13.68
2022-08-21T23:28:19.063Z,12.77
2022-08-21T23:31:18.610Z,10.85
2022-08-21T23:34:20.336Z,12.75
2022-08-21T23:37:49.191Z,11.27
2022-08-21T23:40:51.635Z,9.18
2022-08-21T23:43:58.024Z,10.40
2022-08-21T23:47:26.292Z,11.27
2022-08-21T23:50:29.671Z,13.23
2022-08-21T23:53:09.046Z,10.82
2022-08-21T23:56:48.913Z,11.40
